Time;durP1;ratioP1;P1;durP2;ratioP2;P2;SDS_P1;SDS_P2;PMS_P1;PMS_P2;Temp;Humidity;BMP_temperature;BMP_pressure;BME280_temperature;BME280_humidity;BME280_pressure;Samples;Min_cycle;Max_cycle;Signal;HPM_P1;HPM_P2
2021/07/29 00:01:51;;;;;;;;;;;;;;;;;;2146006;59;1223;-72
2021/07/29 00:04:16;;;;;;;;;;;;;;;;;;2145066;66;1968;-72
2021/07/29 00:06:42;;;;;;;;;;;;;;;;;;2145880;66;1215;-72
2021/07/29 00:09:07;;;;;;;;;;;;;;;;;;2146881;66;1183;-73
2021/07/29 00:11:32;;;;;;;;;;;;;;;;;;2146815;66;1259;-72
2021/07/29 00:13:59;;;;;;;;;;;;;;;;;;2146342;66;1223;-72
2021/07/29 00:16:26;;;;;;;;;;;;;;;;;;2146157;66;1168;-72
2021/07/29 00:19:03;;;;;;;;;;;;;;;;;;2146087;66;1190;-71
2021/07/29 00:21:28;;;;;;;;;;;;;;;;;;2146440;66;1322;-71
2021/07/29 00:23:54;;;;;;;;;;;;;;;;;;2147060;66;1929;-71
2021/07/29 00:26:19;;;;;;;;;;;;;;;;;;2146814;66;1183;-70
2021/07/29 00:28:44;;;;;;;;;;;;;;;;;;2145959;66;1238;-73
2021/07/29 00:31:09;;;;;;;;;;;;;;;;;;2146363;66;1223;-73
2021/07/29 00:33:34;;;;;;;;;;;;;;;;;;2146097;66;1274;-72
2021/07/29 00:36:00;;;;;;;;;;;;;;;;;;2144455;59;2033;-72
2021/07/29 00:38:25;;;;;;;;;;;;;;;;;;2146579;53;2193;-72
2021/07/29 00:40:50;;;;;;;;;;;;;;;;;;2142541;59;1261;-69
2021/07/29 00:43:16;;;;;;;;;;;;;;;;;;2142039;59;1209;-71
2021/07/29 00:45:43;;;;;;;;;;;;;;;;;;2142558;59;2274;-72
2021/07/29 00:48:10;;;;;;;;;;;;;;;;;;2143978;66;1302;-70
2021/07/29 00:50:35;;;;;;;;;;;;;;;;;;2143186;59;1413;-71
2021/07/29 00:53:00;;;;;;;;;;;;;;;;;;2142702;66;1227;-71
2021/07/29 00:55:25;;;;;;;;;;;;;;;;;;2141803;59;1179;-70
2021/07/29 00:57:51;;;;;;;;;;;;;;;;;;2143527;66;1300;-72
2021/07/29 01:00:16;;;;;;;;;;;;;;;;;;2143559;66;1187;-70
2021/07/29 01:02:41;;;;;;;;;;;;;;;;;;2143696;59;1227;-70
2021/07/29 01:05:07;;;;;;;;;;;;;;;;;;2143131;66;1941;-71
2021/07/29 01:07:32;;;;;;;;;;;;;;;;;;2143716;66;1167;-70
2021/07/29 01:09:57;;;;;;;;;;;;;;;;;;2143722;66;1171;-70
2021/07/29 01:12:23;;;;;;;;;;;;;;;;;;2142094;66;1249;-72
2021/07/29 01:14:48;;;;;;;;;;;;;;;;;;2143522;66;1238;-70
2021/07/29 01:17:13;;;;;;;;;;;;;;;;;;2142920;66;1183;-71
2021/07/29 01:19:38;;;;;;;;;;;;;;;;;;2142968;66;1178;-70
2021/07/29 01:22:03;;;;;;;;;;;;;;;;;;2143155;66;1147;-68
2021/07/29 01:24:29;;;;;;;;;;;;;;;;;;2143467;66;1917;-71
2021/07/29 01:26:54;;;;;;;;;;;;;;;;;;2142309;66;1147;-70
2021/07/29 01:29:19;;;;;;;;;;;;;;;;;;2143970;66;1263;-71
2021/07/29 01:31:45;;;;;;;;;;;;;;;;;;2143662;66;1148;-71
2021/07/29 01:34:10;;;;;;;;;;;;;;;;;;2143671;66;1169;-69
2021/07/29 01:36:35;;;;;;;;;;;;;;;;;;2143723;66;1199;-70
2021/07/29 01:39:00;;;;;;;;;;;;;;;;;;2143297;66;1266;-71
2021/07/29 01:41:26;;;;;;;;;;;;;;;;;;2142284;66;1045;-71
2021/07/29 01:43:51;;;;;;;;;;;;;;;;;;2143242;66;1929;-68
2021/07/29 01:46:16;;;;;;;;;;;;;;;;;;2144153;66;1185;-71
2021/07/29 01:48:41;;;;;;;;;;;;;;;;;;2143290;58;1459;-71
2021/07/29 01:51:06;;;;;;;;;;;;;;;;;;2142944;66;1172;-70
2021/07/29 01:53:31;;;;;;;;;;;;;;;;;;2143249;66;1173;-70
2021/07/29 01:55:57;;;;;;;;;;;;;;;;;;2141948;66;1242;-68
2021/07/29 01:58:22;;;;;;;;;;;;;;;;;;2143625;66;1181;-70
2021/07/29 02:00:48;;;;;;;;;;;;;;;;;;2143322;59;1222;-73
2021/07/29 02:03:13;;;;;;;;;;;;;;;;;;2142714;58;1245;-70
2021/07/29 02:05:39;;;;;;;;;;;;;;;;;;2143991;66;1984;-69
2021/07/29 02:08:04;;;;;;;;;;;;;;;;;;2142543;66;1342;-71
2021/07/29 02:10:29;;;;;;;;;;;;;;;;;;2143805;66;1224;-73
2021/07/29 02:12:55;;;;;;;;;;;;;;;;;;2142785;59;1229;-69
2021/07/29 02:15:20;;;;;;;;;;;;;;;;;;2143559;66;1250;-69
2021/07/29 02:17:46;;;;;;;;;;;;;;;;;;2141483;66;1291;-68
2021/07/29 02:20:12;;;;;;;;;;;;;;;;;;2143335;66;1218;-69
2021/07/29 02:22:37;;;;;;;;;;;;;;;;;;2142551;66;1239;-72
2021/07/29 02:25:04;;;;;;;;;;;;;;;;;;2143000;66;1978;-71
2021/07/29 02:27:29;;;;;;;;;;;;;;;;;;2143281;66;1252;-71
2021/07/29 02:29:55;;;;;;;;;;;;;;;;;;2143038;66;1510;-71
2021/07/29 02:32:20;;;;;;;;;;;;;;;;;;2143700;66;1249;-70
2021/07/29 02:34:45;;;;;;;;;;;;;;;;;;2143168;66;1153;-71
2021/07/29 02:37:11;;;;;;;;;;;;;;;;;;2143674;66;1254;-71
2021/07/29 02:39:37;;;;;;;;;;;;;;;;;;2143491;59;1156;-68
2021/07/29 02:42:03;;;;;;;;;;;;;;;;;;2142358;66;1451;-70
2021/07/29 02:44:28;;;;;;;;;;;;;;;;;;2143124;66;1925;-71
2021/07/29 02:46:53;;;;;;;;;;;;;;;;;;2144111;66;1245;-71
2021/07/29 02:49:19;;;;;;;;;;;;;;;;;;2142262;66;1386;-68
2021/07/29 02:51:44;;;;;;;;;;;;;;;;;;2143154;66;1150;-71
2021/07/29 02:54:09;;;;;;;;;;;;;;;;;;2143346;66;1189;-70
2021/07/29 02:56:34;;;;;;;;;;;;;;;;;;2142597;66;1226;-70
2021/07/29 02:58:59;;;;;;;;;;;;;;;;;;2143043;66;1229;-70
2021/07/29 03:01:25;;;;;;;;;;;;;;;;;;2142907;59;1818;-71
2021/07/29 03:03:51;;;;;;;;;;;;;;;;;;2142399;66;1923;-71
2021/07/29 03:06:16;;;;;;;;;;;;;;;;;;2141514;66;1352;-70
2021/07/29 03:08:41;;;;;;;;;;;;;;;;;;2143118;59;1134;-70
2021/07/29 03:11:08;;;;;;;;;;;;;;;;;;2143750;66;1301;-71
2021/07/29 03:13:34;;;;;;;;;;;;;;;;;;2142031;66;1491;-69
2021/07/29 03:15:59;;;;;;;;;;;;;;;;;;2143350;66;1024;-70
2021/07/29 03:18:24;;;;;;;;;;;;;;;;;;2142890;66;1200;-70
2021/07/29 03:20:49;;;;;;;;;;;;;;;;;;2144560;66;1139;-73
2021/07/29 03:23:15;;;;;;;;;;;;;;;;;;2141902;66;1172;-70
2021/07/29 03:25:40;;;;;;;;;;;;;;;;;;2143388;66;1918;-72
2021/07/29 03:28:05;;;;;;;;;;;;;;;;;;2142230;66;1199;-70
2021/07/29 03:30:31;;;;;;;;;;;;;;;;;;2142918;66;1152;-70
2021/07/29 03:32:56;;;;;;;;;;;;;;;;;;2143432;59;1222;-73
2021/07/29 03:35:21;;;;;;;;;;;;;;;;;;2143438;67;1238;-72
2021/07/29 03:37:46;;;;;;;;;;;;;;;;;;2142728;59;1185;-71
2021/07/29 03:40:12;;;;;;;;;;;;;;;;;;2142224;67;1160;-71
2021/07/29 03:42:37;;;;;;;;;;;;;;;;;;2142364;67;1092;-70
2021/07/29 03:45:03;;;;;;;;;;;;;;;;;;2142521;67;1913;-69
2021/07/29 03:47:28;;;;;;;;;;;;;;;;;;2142897;67;1260;-70
2021/07/29 03:49:53;;;;;;;;;;;;;;;;;;2141838;67;1309;-69
2021/07/29 03:52:19;;;;;;;;;;;;;;;;;;2142863;67;1242;-70
2021/07/29 03:54:44;;;;;;;;;;;;;;;;;;2142623;67;1391;-71
2021/07/29 03:57:09;;;;;;;;;;;;;;;;;;2142824;66;1198;-70
2021/07/29 03:59:37;;;;;;;;;;;;;;;;;;2142694;67;1163;-70
2021/07/29 04:02:09;;;;;;;;;;;;;;;;;;2142552;59;1223;-69
2021/07/29 04:04:35;;;;;;;;;;;;;;;;;;2145379;66;1921;-70
2021/07/29 04:07:02;;;;;;;;;;;;;;;;;;2143048;66;1166;-71
2021/07/29 04:09:27;;;;;;;;;;;;;;;;;;2143438;66;1280;-72
2021/07/29 04:11:52;;;;;;;;;;;;;;;;;;2142975;67;1115;-72
2021/07/29 04:14:17;;;;;;;;;;;;;;;;;;2142605;67;1242;-71
2021/07/29 04:16:42;;;;;;;;;;;;;;;;;;2142491;67;1176;-71
2021/07/29 04:19:07;;;;;;;;;;;;;;;;;;2142630;67;1219;-70
2021/07/29 04:21:33;;;;;;;;;;;;;;;;;;2142766;67;1180;-71
2021/07/29 04:23:58;;;;;;;;;;;;;;;;;;2143094;66;1984;-67
2021/07/29 04:26:23;;;;;;;;;;;;;;;;;;2142835;66;1446;-71
2021/07/29 04:28:48;;;;;;;;;;;;;;;;;;2143254;66;1256;-69
2021/07/29 04:31:13;;;;;;;;;;;;;;;;;;2143406;66;1228;-70
2021/07/29 04:33:38;;;;;;;;;;;;;;;;;;2143090;66;1212;-69
2021/07/29 04:36:04;;;;;;;;;;;;;;;;;;2143771;66;1176;-70
2021/07/29 04:38:29;;;;;;;;;;;;;;;;;;2143076;58;1248;-71
2021/07/29 04:41:02;;;;;;;;;;;;;;;;;;2142652;66;1082;-68
2021/07/29 04:43:27;;;;;;;;;;;;;;;;;;2144412;66;1052;-71
2021/07/29 04:45:52;;;;;;;;;;;;;;;;;;2143391;66;1925;-71
2021/07/29 04:48:17;;;;;;;;;;;;;;;;;;2142475;66;1342;-71
2021/07/29 04:50:42;;;;;;;;;;;;;;;;;;2142260;66;1301;-71
2021/07/29 04:53:07;;;;;;;;;;;;;;;;;;2143731;66;1171;-71
2021/07/29 04:55:32;;;;;;;;;;;;;;;;;;2142530;66;1165;-71
2021/07/29 04:58:02;;;;;;;;;;;;;;;;;;2142889;66;1330;-72
2021/07/29 05:00:29;;;;;;;;;;;;;;;;;;2144408;66;1227;-72
2021/07/29 05:02:54;;;;;;;;;;;;;;;;;;2147489;58;1292;-70
2021/07/29 05:05:20;;;;;;;;;;;;;;;;;;2145324;66;1967;-70
2021/07/29 05:07:45;;;;;;;;;;;;;;;;;;2144241;66;1378;-70
2021/07/29 05:10:10;;;;;;;;;;;;;;;;;;2141272;66;1697;-72
2021/07/29 05:12:35;;;;;;;;;;;;;;;;;;2143813;66;1241;-73
2021/07/29 05:15:00;;;;;;;;;;;;;;;;;;2143051;66;1145;-71
2021/07/29 05:17:25;;;;;;;;;;;;;;;;;;2143345;66;1281;-72
2021/07/29 05:19:51;;;;;;;;;;;;;;;;;;2141636;66;1183;-69
2021/07/29 05:22:16;;;;;;;;;;;;;;;;;;2143624;66;1177;-68
2021/07/29 05:24:41;;;;;;;;;;;;;;;;;;2142400;59;1971;-72
2021/07/29 05:27:06;;;;;;;;;;;;;;;;;;2143085;66;1150;-69
2021/07/29 05:29:32;;;;;;;;;;;;;;;;;;2143155;66;1290;-71
2021/07/29 05:31:57;;;;;;;;;;;;;;;;;;2140661;59;2090;-71
2021/07/29 05:34:24;;;;;;;;;;;;;;;;;;2139203;66;1599;-70
2021/07/29 05:36:49;;;;;;;;;;;;;;;;;;2142007;66;1349;-70
2021/07/29 05:39:14;;;;;;;;;;;;;;;;;;2141603;59;1410;-71
2021/07/29 05:41:39;;;;;;;;;;;;;;;;;;2142284;59;2165;-72
2021/07/29 05:44:04;;;;;;;;;;;;;;;;;;2141665;66;2292;-69
2021/07/29 05:46:30;;;;;;;;;;;;;;;;;;2140711;66;1285;-71
2021/07/29 05:48:55;;;;;;;;;;;;;;;;;;2141128;66;1291;-69
2021/07/29 05:51:20;;;;;;;;;;;;;;;;;;2142072;66;1541;-72
2021/07/29 05:53:45;;;;;;;;;;;;;;;;;;2140858;59;2048;-70
2021/07/29 05:56:11;;;;;;;;;;;;;;;;;;2142303;59;2158;-71
2021/07/29 05:58:36;;;;;;;;;;;;;;;;;;2142271;66;1262;-71
2021/07/29 06:01:10;;;;;;;;;;;;;;;;;;2142544;59;1238;-71
2021/07/29 06:03:35;;;;;;;;;;;;;;;;;;2143166;66;1263;-70
2021/07/29 06:06:01;;;;;;;;;;;;;;;;;;2142574;66;1980;-70
2021/07/29 06:08:26;;;;;;;;;;;;;;;;;;2143068;66;1280;-71
2021/07/29 06:10:51;;;;;;;;;;;;;;;;;;2143248;66;1180;-71
2021/07/29 06:13:16;;;;;;;;;;;;;;;;;;2142964;66;1151;-71
2021/07/29 06:15:41;;;;;;;;;;;;;;;;;;2143890;66;1152;-73
2021/07/29 06:18:10;;;;;;;;;;;;;;;;;;2142876;66;1179;-73
2021/07/29 06:20:35;;;;;;;;;;;;;;;;;;2144063;66;1250;-73
2021/07/29 06:23:00;;;;;;;;;;;;;;;;;;2142676;66;1235;-70
2021/07/29 06:25:26;;;;;;;;;;;;;;;;;;2141926;66;1934;-71
2021/07/29 06:27:51;;;;;;;;;;;;;;;;;;2142646;66;1549;-71
2021/07/29 06:30:16;;;;;;;;;;;;;;;;;;2144191;66;1166;-71
2021/07/29 06:32:42;;;;;;;;;;;;;;;;;;2142993;66;1253;-73
2021/07/29 06:35:08;;;;;;;;;;;;;;;;;;2143245;59;1358;-72
2021/07/29 06:40:00;;;;;;;;;;;;;;;;;;2138286;59;2103;-68
2021/07/29 06:42:26;;;;;;;;;;;;;;;;;;2140230;59;1221;-68
2021/07/29 06:44:51;;;;;;;;;;;;;;;;;;2138790;67;1980;-69
2021/07/29 06:47:21;;;;;;;;;;;;;;;;;;2139449;59;1214;-68
2021/07/29 06:49:46;;;;;;;;;;;;;;;;;;2140024;67;1297;-68
2021/07/29 06:52:12;;;;;;;;;;;;;;;;;;2134863;67;1265;-68
2021/07/29 06:54:37;;;;;;;;;;;;;;;;;;2139330;67;1243;-69
2021/07/29 06:57:02;;;;;;;;;;;;;;;;;;2138189;67;1214;-68
2021/07/29 06:59:27;;;;;;;;;;;;;;;;;;2139468;67;1287;-69
2021/07/29 07:01:53;;;;;;;;;;;;;;;;;;2138303;59;1349;-69
2021/07/29 07:04:18;;;;;;;;;;;;;;;;;;2139106;67;1924;-69
2021/07/29 07:06:43;;;;;;;;;;;;;;;;;;2136742;67;1233;-68
2021/07/29 07:09:08;;;;;;;;;;;;;;;;;;2138524;67;1212;-68
2021/07/29 07:11:33;;;;;;;;;;;;;;;;;;2139607;67;1201;-67
2021/07/29 07:13:59;;;;;;;;;;;;;;;;;;2138258;59;1540;-68
2021/07/29 07:16:24;;;;;;;;;;;;;;;;;;2140317;67;1195;-69
2021/07/29 07:18:49;;;;;;;;;;;;;;;;;;2135573;67;1244;-69
2021/07/29 07:21:14;;;;;;;;;;;;;;;;;;2139040;59;1183;-69
2021/07/29 07:23:40;;;;;;;;;;;;;;;;;;2137009;67;1076;-68
2021/07/29 07:26:06;;;;;;;;;;;;;;;;;;2138406;67;1970;-68
2021/07/29 07:28:31;;;;;;;;;;;;;;;;;;2139151;67;1271;-68
2021/07/29 07:30:56;;;;;;;;;;;;;;;;;;2138948;67;1163;-69
2021/07/29 07:33:22;;;;;;;;;;;;;;;;;;2138739;67;1191;-68
2021/07/29 07:35:47;;;;;;;;;;;;;;;;;;2139094;67;1224;-69
2021/07/29 07:38:12;;;;;;;;;;;;;;;;;;2138665;59;1224;-68
2021/07/29 07:40:38;;;;;;;;;;;;;;;;;;2138296;67;1228;-69
2021/07/29 07:43:03;;;;;;;;;;;;;;;;;;2137154;67;1541;-69
2021/07/29 07:45:28;;;;;;;;;;;;;;;;;;2139302;67;1928;-68
2021/07/29 07:47:53;;;;;;;;;;;;;;;;;;2138843;67;1226;-68
2021/07/29 07:50:19;;;;;;;;;;;;;;;;;;2137265;67;1173;-68
2021/07/29 07:52:44;;;;;;;;;;;;;;;;;;2137604;67;1693;-68
2021/07/29 07:55:09;;;;;;;;;;;;;;;;;;2139046;67;1216;-68
2021/07/29 07:57:34;;;;;;;;;;;;;;;;;;2137764;67;1229;-69
2021/07/29 07:59:59;;;;;;;;;;;;;;;;;;2139047;67;1142;-67
2021/07/29 08:02:25;;;;;;;;;;;;;;;;;;2139174;59;1232;-69
2021/07/29 08:04:50;;;;;;;;;;;;;;;;;;2139384;67;1929;-67
2021/07/29 08:07:15;;;;;;;;;;;;;;;;;;2137909;59;1177;-69
2021/07/29 08:09:41;;;;;;;;;;;;;;;;;;2139785;67;1253;-68
2021/07/29 08:12:06;;;;;;;;;;;;;;;;;;2138824;67;1187;-69
2021/07/29 08:14:31;;;;;;;;;;;;;;;;;;2138333;59;1174;-69
2021/07/29 08:16:56;;;;;;;;;;;;;;;;;;2139349;59;1191;-68
2021/07/29 08:19:25;;;;;;;;;;;;;;;;;;2139275;67;1194;-69
2021/07/29 08:21:50;;;;;;;;;;;;;;;;;;2138991;67;1180;-69
2021/07/29 08:24:15;;;;;;;;;;;;;;;;;;2138003;67;1929;-68
2021/07/29 08:26:40;;;;;;;;;;;;;;;;;;2139055;67;1168;-68
2021/07/29 08:29:06;;;;;;;;;;;;;;;;;;2139212;67;1265;-68
2021/07/29 08:31:31;;;;;;;;;;;;;;;;;;2139142;67;1208;-68
2021/07/29 08:33:56;;;;;;;;;;;;;;;;;;2139233;67;1053;-68
2021/07/29 08:36:21;;;;;;;;;;;;;;;;;;2139217;67;1147;-69
2021/07/29 08:38:47;;;;;;;;;;;;;;;;;;2139183;59;1108;-68
2021/07/29 08:41:14;;;;;;;;;;;;;;;;;;2137837;67;1200;-68
2021/07/29 08:43:40;;;;;;;;;;;;;;;;;;2135538;67;1094;-68
2021/07/29 08:46:07;;;;;;;;;;;;;;;;;;2139510;67;1963;-68
2021/07/29 08:48:33;;;;;;;;;;;;;;;;;;2138974;67;1326;-68
2021/07/29 08:50:58;;;;;;;;;;;;;;;;;;2137791;67;1174;-68
2021/07/29 08:53:24;;;;;;;;;;;;;;;;;;2138917;67;1129;-68
2021/07/29 08:55:50;;;;;;;;;;;;;;;;;;2139245;67;1129;-67
2021/07/29 08:58:16;;;;;;;;;;;;;;;;;;2138374;59;1212;-68
2021/07/29 09:00:57;;;;;;;;;;;;;;;;;;2137662;59;1230;-68
2021/07/29 09:03:24;;;;;;;;;;;;;;;;;;2138557;67;1809;-69
2021/07/29 09:06:09;;;;;;;;;;;;;;;;;;2139567;67;1916;-67
2021/07/29 09:08:54;;;;;;;;;;;;;;;;;;2138064;59;1339;-68
2021/07/29 09:11:26;;;;;;;;;;;;;;;;;;2138015;67;1266;-68
2021/07/29 09:14:16;;;;;;;;;;;;;;;;;;2139168;67;1219;-68
2021/07/29 09:17:03;;;;;;;;;;;;;;;;;;2139324;67;1148;-68
2021/07/29 09:19:30;;;;;;;;;;;;;;;;;;2137965;67;1326;-68
2021/07/29 09:22:05;;;;;;;;;;;;;;;;;;2138987;67;1235;-68
2021/07/29 09:24:30;;;;;;;;;;;;;;;;;;2137749;67;2072;-68
2021/07/29 09:26:56;;;;;;;;;;;;;;;;;;2139192;67;1257;-69
2021/07/29 09:29:22;;;;;;;;;;;;;;;;;;2139451;67;1265;-69
2021/07/29 09:31:48;;;;;;;;;;;;;;;;;;2139152;67;1069;-68
2021/07/29 09:34:13;;;;;;;;;;;;;;;;;;2139570;67;1275;-67
2021/07/29 09:36:38;;;;;;;;;;;;;;;;;;2139013;67;1239;-68
2021/07/29 09:39:36;;;;;;;;;;;;;;;;;;2139717;59;1228;-69
2021/07/29 09:42:14;;;;;;;;;;;;;;;;;;2133423;60;1356;-68
2021/07/29 09:44:41;;;;;;;;;;;;;;;;;;2139110;67;1920;-69
2021/07/29 09:47:06;;;;;;;;;;;;;;;;;;2138921;67;1135;-68
2021/07/29 09:49:34;;;;;;;;;;;;;;;;;;2138078;67;1366;-69
2021/07/29 09:51:59;;;;;;;;;;;;;;;;;;2138863;59;1124;-68
2021/07/29 09:54:25;;;;;;;;;;;;;;;;;;2138081;67;1279;-68
2021/07/29 09:56:50;;;;;;;;;;;;;;;;;;2139895;67;1231;-68
2021/07/29 09:59:15;;;;;;;;;;;;;;;;;;2137866;67;1215;-69
2021/07/29 10:01:40;;;;;;;;;;;;;;;;;;2140232;59;1335;-68
2021/07/29 10:04:06;;;;;;;;;;;;;;;;;;2138163;67;1980;-69
2021/07/29 10:06:33;;;;;;;;;;;;;;;;;;2138556;67;1209;-68
2021/07/29 10:09:00;;;;;;;;;;;;;;;;;;2140249;67;1293;-69
2021/07/29 10:11:28;;;;;;;;;;;;;;;;;;2135186;67;1197;-68
2021/07/29 10:13:53;;;;;;;;;;;;;;;;;;2140512;67;1076;-68
2021/07/29 10:16:39;;;;;;;;;;;;;;;;;;2138869;67;1054;-67
2021/07/29 10:19:05;;;;;;;;;;;;;;;;;;2138776;67;1663;-68
2021/07/29 10:21:31;;;;;;;;;;;;;;;;;;2139016;67;1148;-66
2021/07/29 10:23:58;;;;;;;;;;;;;;;;;;2136871;67;1935;-68
2021/07/29 10:26:23;;;;;;;;;;;;;;;;;;2139685;67;1010;-66
2021/07/29 10:28:49;;;;;;;;;;;;;;;;;;2138261;67;1191;-69
2021/07/29 10:31:15;;;;;;;;;;;;;;;;;;2139355;67;1200;-67
2021/07/29 10:33:41;;;;;;;;;;;;;;;;;;2139035;67;1160;-67
2021/07/29 10:36:08;;;;;;;;;;;;;;;;;;2138639;67;1228;-69
2021/07/29 10:38:39;;;;;;;;;;;;;;;;;;2138916;59;1209;-68
2021/07/29 10:41:06;;;;;;;;;;;;;;;;;;2136416;67;1161;-66
2021/07/29 10:43:32;;;;;;;;;;;;;;;;;;2137021;67;1282;-66
2021/07/29 10:45:58;;;;;;;;;;;;;;;;;;2138813;67;1927;-66
2021/07/29 10:48:45;;;;;;;;;;;;;;;;;;2139098;67;1535;-69
2021/07/29 10:51:11;;;;;;;;;;;;;;;;;;2137566;67;1097;-68
2021/07/29 10:53:40;;;;;;;;;;;;;;;;;;2139280;67;1169;-68
2021/07/29 10:56:06;;;;;;;;;;;;;;;;;;2138135;67;1144;-67
2021/07/29 10:58:39;;;;;;;;;;;;;;;;;;2139993;67;1218;-66
2021/07/29 11:01:04;;;;;;;;;;;;;;;;;;2138971;59;1188;-66
2021/07/29 11:03:29;;;;;;;;;;;;;;;;;;2139452;67;1196;-68
2021/07/29 11:06:05;;;;;;;;;;;;;;;;;;2138685;67;1919;-68
2021/07/29 11:08:30;;;;;;;;;;;;;;;;;;2137482;67;1269;-69
2021/07/29 11:10:56;;;;;;;;;;;;;;;;;;2138280;67;1243;-69
2021/07/29 11:13:22;;;;;;;;;;;;;;;;;;2139018;67;1180;-69
2021/07/29 11:15:47;;;;;;;;;;;;;;;;;;2138543;67;1240;-67
2021/07/29 11:18:15;;;;;;;;;;;;;;;;;;2135367;67;1238;-68
2021/07/29 11:20:40;;;;;;;;;;;;;;;;;;2138297;67;1046;-69
2021/07/29 11:23:06;;;;;;;;;;;;;;;;;;2136911;67;1266;-68
2021/07/29 11:25:33;;;;;;;;;;;;;;;;;;2140155;67;1934;-68
2021/07/29 11:28:12;;;;;;;;;;;;;;;;;;2138811;67;1645;-68
2021/07/29 11:30:41;;;;;;;;;;;;;;;;;;2136833;67;1247;-68
2021/07/29 11:33:17;;;;;;;;;;;;;;;;;;2139427;67;1162;-68
2021/07/29 11:35:43;;;;;;;;;;;;;;;;;;2136744;67;1157;-68
2021/07/29 11:38:14;;;;;;;;;;;;;;;;;;2139482;59;1229;-68
2021/07/29 11:40:39;;;;;;;;;;;;;;;;;;2135946;67;1607;-68
2021/07/29 11:43:19;;;;;;;;;;;;;;;;;;2134881;67;1327;-68
2021/07/29 11:45:44;;;;;;;;;;;;;;;;;;2138530;67;1983;-68
2021/07/29 11:48:18;;;;;;;;;;;;;;;;;;2137981;67;1185;-69
2021/07/29 11:50:43;;;;;;;;;;;;;;;;;;2137525;67;1152;-69
2021/07/29 11:53:09;;;;;;;;;;;;;;;;;;2138581;67;1231;-68
2021/07/29 11:55:35;;;;;;;;;;;;;;;;;;2138795;67;1086;-68
2021/07/29 11:58:06;;;;;;;;;;;;;;;;;;2138689;67;1275;-68
2021/07/29 12:00:32;;;;;;;;;;;;;;;;;;2139056;67;1276;-69
2021/07/29 12:02:57;;;;;;;;;;;;;;;;;;2139114;59;1404;-68
2021/07/29 12:05:26;;;;;;;;;;;;;;;;;;2138408;60;1923;-67
2021/07/29 12:07:54;;;;;;;;;;;;;;;;;;2137880;67;1391;-67
2021/07/29 12:10:22;;;;;;;;;;;;;;;;;;2138504;59;1152;-67
2021/07/29 12:12:47;;;;;;;;;;;;;;;;;;2139520;67;1241;-67
2021/07/29 12:15:13;;;;;;;;;;;;;;;;;;2138891;67;1243;-67
2021/07/29 12:17:38;;;;;;;;;;;;;;;;;;2139329;67;1267;-67
2021/07/29 12:20:05;;;;;;;;;;;;;;;;;;2139833;67;1168;-67
2021/07/29 12:22:31;;;;;;;;;;;;;;;;;;2138241;67;1221;-67
2021/07/29 12:25:00;;;;;;;;;;;;;;;;;;2139659;67;1943;-67
2021/07/29 12:27:25;;;;;;;;;;;;;;;;;;2139128;67;1223;-67
2021/07/29 12:29:50;;;;;;;;;;;;;;;;;;2139623;67;1225;-67
2021/07/29 12:32:16;;;;;;;;;;;;;;;;;;2139206;67;1356;-67
2021/07/29 12:34:42;;;;;;;;;;;;;;;;;;2139008;67;1207;-67
2021/07/29 12:37:07;;;;;;;;;;;;;;;;;;2138599;59;1660;-66
2021/07/29 12:39:33;;;;;;;;;;;;;;;;;;2138705;59;2243;-66
2021/07/29 12:41:58;;;;;;;;;;;;;;;;;;2134523;59;1517;-67
2021/07/29 12:44:23;;;;;;;;;;;;;;;;;;2139160;59;1935;-67
2021/07/29 12:46:49;;;;;;;;;;;;;;;;;;2138737;67;1277;-67
2021/07/29 12:49:15;;;;;;;;;;;;;;;;;;2137968;67;1319;-66
2021/07/29 12:51:41;;;;;;;;;;;;;;;;;;2137812;67;1279;-66
2021/07/29 12:54:07;;;;;;;;;;;;;;;;;;2139318;67;1206;-67
2021/07/29 12:56:33;;;;;;;;;;;;;;;;;;2139343;59;1194;-67
2021/07/29 12:58:58;;;;;;;;;;;;;;;;;;2139909;67;1234;-67
2021/07/29 13:01:23;;;;;;;;;;;;;;;;;;2137080;59;1234;-67
2021/07/29 13:03:51;;;;;;;;;;;;;;;;;;2139658;67;1167;-67
2021/07/29 13:06:17;;;;;;;;;;;;;;;;;;2138279;67;1972;-67
2021/07/29 13:08:43;;;;;;;;;;;;;;;;;;2139439;67;1214;-66
2021/07/29 13:11:08;;;;;;;;;;;;;;;;;;2139426;67;1170;-66
2021/07/29 13:13:36;;;;;;;;;;;;;;;;;;2139447;59;1166;-66
2021/07/29 13:16:01;;;;;;;;;;;;;;;;;;2138828;60;1256;-67
2021/07/29 13:18:26;;;;;;;;;;;;;;;;;;2139482;67;1243;-66
2021/07/29 13:20:52;;;;;;;;;;;;;;;;;;2139140;67;1170;-66
2021/07/29 13:23:18;;;;;;;;;;;;;;;;;;2136556;67;1840;-66
2021/07/29 13:25:44;;;;;;;;;;;;;;;;;;2139395;67;1927;-67
2021/07/29 13:28:10;;;;;;;;;;;;;;;;;;2139365;67;1242;-66
2021/07/29 13:30:35;;;;;;;;;;;;;;;;;;2139535;67;1996;-66
2021/07/29 13:33:01;;;;;;;;;;;;;;;;;;2139683;67;1167;-67
2021/07/29 13:35:26;;;;;;;;;;;;;;;;;;2139321;67;1247;-67
2021/07/29 13:37:51;;;;;;;;;;;;;;;;;;2140054;59;1221;-67
2021/07/29 13:40:16;;;;;;;;;;;;;;;;;;2139142;67;1168;-67
2021/07/29 13:42:46;;;;;;;;;;;;;;;;;;2136939;67;1318;-67
2021/07/29 13:45:20;;;;;;;;;;;;;;;;;;2137768;67;1968;-67
2021/07/29 13:48:04;;;;;;;;;;;;;;;;;;2139550;59;1351;-67
2021/07/29 13:50:31;;;;;;;;;;;;;;;;;;2137573;67;1322;-66
2021/07/29 13:52:58;;;;;;;;;;;;;;;;;;2138248;67;1247;-67
2021/07/29 13:55:23;;;;;;;;;;;;;;;;;;2139535;67;1169;-67
2021/07/29 13:57:49;;;;;;;;;;;;;;;;;;2138226;59;1213;-67
2021/07/29 14:00:15;;;;;;;;;;;;;;;;;;2138450;67;1182;-67
2021/07/29 14:02:40;;;;;;;;;;;;;;;;;;2138042;59;1248;-68
2021/07/29 14:05:09;;;;;;;;;;;;;;;;;;2139487;67;1930;-67
2021/07/29 14:07:35;;;;;;;;;;;;;;;;;;2136997;67;1252;-67
2021/07/29 14:10:00;;;;;;;;;;;;;;;;;;2139100;67;1165;-67
2021/07/29 14:12:26;;;;;;;;;;;;;;;;;;2139155;67;1148;-67
2021/07/29 14:14:52;;;;;;;;;;;;;;;;;;2138365;59;1133;-67
2021/07/29 14:17:24;;;;;;;;;;;;;;;;;;2139017;67;1115;-67
2021/07/29 14:20:02;;;;;;;;;;;;;;;;;;2139083;67;1417;-67
2021/07/29 14:25:12;;;;;;;;;;;;;;;;;;2137503;59;1974;-67
2021/07/29 14:27:37;;;;;;;;;;;;;;;;;;2139153;67;1208;-67
2021/07/29 14:30:03;;;;;;;;;;;;;;;;;;2139068;67;1295;-67
2021/07/29 14:32:28;;;;;;;;;;;;;;;;;;2138915;67;1177;-67
2021/07/29 14:34:53;;;;;;;;;;;;;;;;;;2139234;67;1177;-67
2021/07/29 14:37:18;;;;;;;;;;;;;;;;;;2138222;67;1153;-66
2021/07/29 14:39:44;;;;;;;;;;;;;;;;;;2139299;59;1184;-66
2021/07/29 14:42:09;;;;;;;;;;;;;;;;;;2136622;67;1104;-67
2021/07/29 14:44:37;;;;;;;;;;;;;;;;;;2137149;67;1967;-67
2021/07/29 14:49:46;;;;;;;;;;;;;;;;;;2137256;59;1325;-66
2021/07/29 14:52:14;;;;;;;;;;;;;;;;;;2136963;59;1948;-67
2021/07/29 14:54:39;;;;;;;;;;;;;;;;;;2134738;59;2939;-67
2021/07/29 14:57:10;;;;;;;;;;;;;;;;;;2138023;59;1719;-66
2021/07/29 16:08:07;;;;;;;;;;;;;;;;;;2138735;59;1363;-67
2021/07/29 16:10:33;;;;;;;;;;;;;;;;;;2136985;59;1930;-67
2021/07/29 16:13:00;;;;;;;;;;;;;;;;;;2138600;59;1651;-68
2021/07/29 16:15:25;;;;;;;;;;;;;;;;;;2136865;67;1226;-67
2021/07/29 16:17:51;;;;;;;;;;;;;;;;;;2138315;67;1269;-68
2021/07/29 16:20:16;;;;;;;;;;;;;;;;;;2139727;67;1227;-67
2021/07/29 16:22:41;;;;;;;;;;;;;;;;;;2140788;67;1168;-67
2021/07/29 16:25:06;;;;;;;;;;;;;;;;;;2137930;67;1937;-68
2021/07/29 16:27:31;;;;;;;;;;;;;;;;;;2139070;67;1895;-67
2021/07/29 16:29:56;;;;;;;;;;;;;;;;;;2137751;67;1420;-67
2021/07/29 16:32:22;;;;;;;;;;;;;;;;;;2138068;67;1246;-67
2021/07/29 16:34:47;;;;;;;;;;;;;;;;;;2138525;67;1186;-67
2021/07/29 16:37:12;;;;;;;;;;;;;;;;;;2138719;67;982;-67
2021/07/29 16:39:39;;;;;;;;;;;;;;;;;;2138274;59;1216;-67
2021/07/29 16:42:05;;;;;;;;;;;;;;;;;;2136449;59;1887;-69
2021/07/29 16:44:31;;;;;;;;;;;;;;;;;;2139125;67;1928;-69
2021/07/29 16:46:57;;;;;;;;;;;;;;;;;;2137287;59;1982;-69
2021/07/29 16:49:22;;;;;;;;;;;;;;;;;;2137568;59;2194;-68
2021/07/29 16:51:48;;;;;;;;;;;;;;;;;;2138103;59;1853;-68
2021/07/29 16:54:13;;;;;;;;;;;;;;;;;;2138623;67;1571;-69
2021/07/29 16:56:38;;;;;;;;;;;;;;;;;;2140463;67;1233;-69
2021/07/29 16:59:03;;;;;;;;;;;;;;;;;;2137355;59;2068;-69
2021/07/29 17:01:28;;;;;;;;;;;;;;;;;;2137807;59;1347;-69
2021/07/29 17:03:54;;;;;;;;;;;;;;;;;;2138278;59;1816;-69
2021/07/29 17:06:19;;;;;;;;;;;;;;;;;;2138750;67;1941;-68
2021/07/29 17:08:44;;;;;;;;;;;;;;;;;;2138962;67;1321;-69
2021/07/29 17:11:09;;;;;;;;;;;;;;;;;;2136744;59;2136;-69
2021/07/29 17:13:34;;;;;;;;;;;;;;;;;;2139858;67;1344;-70
2021/07/29 17:15:59;;;;;;;;;;;;;;;;;;2138647;67;1421;-70
2021/07/29 17:18:25;;;;;;;;;;;;;;;;;;2138915;67;1220;-69
2021/07/29 17:20:50;;;;;;;;;;;;;;;;;;2140043;67;1200;-69
2021/07/29 17:23:17;;;;;;;;;;;;;;;;;;2137443;67;1207;-69
2021/07/29 17:25:42;;;;;;;;;;;;;;;;;;2138926;67;1948;-69
2021/07/29 17:28:07;;;;;;;;;;;;;;;;;;2139082;67;1170;-69
2021/07/29 17:30:32;;;;;;;;;;;;;;;;;;2138972;67;1173;-69
2021/07/29 17:32:57;;;;;;;;;;;;;;;;;;2139260;59;1169;-69
2021/07/29 17:35:23;;;;;;;;;;;;;;;;;;2138704;67;1203;-69
2021/07/29 17:37:48;;;;;;;;;;;;;;;;;;2139240;59;1257;-70
2021/07/29 17:40:13;;;;;;;;;;;;;;;;;;2138874;67;1170;-69
2021/07/29 17:42:38;;;;;;;;;;;;;;;;;;2136412;67;1294;-68
2021/07/29 17:45:04;;;;;;;;;;;;;;;;;;2138223;67;1965;-69
2021/07/29 17:47:29;;;;;;;;;;;;;;;;;;2138178;67;2024;-69
2021/07/29 17:49:54;;;;;;;;;;;;;;;;;;2137075;59;1990;-69
2021/07/29 17:52:19;;;;;;;;;;;;;;;;;;2135169;59;2062;-69
2021/07/29 17:54:45;;;;;;;;;;;;;;;;;;2132200;59;2490;-69
2021/07/29 17:57:10;;;;;;;;;;;;;;;;;;2137053;67;1845;-69
2021/07/29 17:59:35;;;;;;;;;;;;;;;;;;2138050;67;1701;-69
2021/07/29 18:02:00;;;;;;;;;;;;;;;;;;2138784;59;1464;-69
2021/07/29 18:04:26;;;;;;;;;;;;;;;;;;2136288;59;3223;-69
2021/07/29 18:06:51;;;;;;;;;;;;;;;;;;2137143;67;1864;-69
2021/07/29 18:09:17;;;;;;;;;;;;;;;;;;2139503;67;1742;-69
2021/07/29 18:11:42;;;;;;;;;;;;;;;;;;2137448;67;2011;-68
2021/07/29 18:14:07;;;;;;;;;;;;;;;;;;2137590;59;2293;-68